sensor_id;sensor_type;location;lat;lon;timestamp;P1;durP1;ratioP1;P2;durP2;ratioP2
6878;SDS011;3478;51.462;7.338;2022-11-15T00:03:45;8.07;;;6.97;;
6878;SDS011;3478;51.462;7.338;2022-11-15T00:08:51;7.60;;;6.90;;
6878;SDS011;3478;51.462;7.338;2022-11-15T00:13:55;7.30;;;6.70;;
6878;SDS011;3478;51.462;7.338;2022-11-15T00:18:58;8.00;;;7.20;;
6878;SDS011;3478;51.462;7.338;2022-11-15T00:24:00;9.40;;;8.40;;
6878;SDS011;3478;51.462;7.338;2022-11-15T00:29:03;8.00;;;7.30;;
6878;SDS011;3478;51.462;7.338;2022-11-15T00:34:05;7.03;;;6.30;;
6878;SDS011;3478;51.462;7.338;2022-11-15T00:39:07;7.73;;;6.33;;
6878;SDS011;3478;51.462;7.338;2022-11-15T00:44:10;11.37;;;8.30;;
6878;SDS011;3478;51.462;7.338;2022-11-15T00:49:12;8.57;;;7.37;;
6878;SDS011;3478;51.462;7.338;2022-11-15T00:54:14;6.03;;;5.53;;
6878;SDS011;3478;51.462;7.338;2022-11-15T00:59:17;7.00;;;6.33;;
6878;SDS011;3478;51.462;7.338;2022-11-15T01:04:19;6.97;;;6.20;;
6878;SDS011;3478;51.462;7.338;2022-11-15T01:09:21;10.23;;;6.23;;
6878;SDS011;3478;51.462;7.338;2022-11-15T01:14:24;7.33;;;6.63;;
6878;SDS011;3478;51.462;7.338;2022-11-15T01:19:26;7.37;;;5.90;;
6878;SDS011;3478;51.462;7.338;2022-11-15T01:24:28;12.93;;;6.70;;
6878;SDS011;3478;51.462;7.338;2022-11-15T01:29:31;12.00;;;8.60;;
6878;SDS011;3478;51.462;7.338;2022-11-15T01:34:33;11.60;;;7.23;;
6878;SDS011;3478;51.462;7.338;2022-11-15T01:39:34;6.90;;;6.40;;
6878;SDS011;3478;51.462;7.338;2022-11-15T01:44:45;8.83;;;7.17;;
6878;SDS011;3478;51.462;7.338;2022-11-15T01:49:50;7.50;;;6.77;;
6878;SDS011;3478;51.462;7.338;2022-11-15T01:54:57;10.37;;;6.70;;
6878;SDS011;3478;51.462;7.338;2022-11-15T02:00:04;6.03;;;5.63;;
6878;SDS011;3478;51.462;7.338;2022-11-15T02:05:07;9.80;;;6.77;;
6878;SDS011;3478;51.462;7.338;2022-11-15T02:10:10;7.33;;;6.53;;
6878;SDS011;3478;51.462;7.338;2022-11-15T02:15:16;8.13;;;7.13;;
6878;SDS011;3478;51.462;7.338;2022-11-15T02:25:47;7.13;;;6.43;;
6878;SDS011;3478;51.462;7.338;2022-11-15T02:31:10;6.67;;;6.17;;
6878;SDS011;3478;51.462;7.338;2022-11-15T02:36:22;7.90;;;7.13;;
6878;SDS011;3478;51.462;7.338;2022-11-15T02:41:35;12.60;;;6.13;;
6878;SDS011;3478;51.462;7.338;2022-11-15T02:46:49;9.00;;;7.03;;
6878;SDS011;3478;51.462;7.338;2022-11-15T02:52:14;9.47;;;7.73;;
6878;SDS011;3478;51.462;7.338;2022-11-15T02:57:16;12.20;;;8.03;;
6878;SDS011;3478;51.462;7.338;2022-11-15T03:02:30;8.00;;;6.80;;
6878;SDS011;3478;51.462;7.338;2022-11-15T03:07:43;9.97;;;8.30;;
6878;SDS011;3478;51.462;7.338;2022-11-15T03:12:54;12.60;;;8.03;;
6878;SDS011;3478;51.462;7.338;2022-11-15T03:18:00;9.60;;;7.80;;
6878;SDS011;3478;51.462;7.338;2022-11-15T03:23:08;8.90;;;7.13;;
6878;SDS011;3478;51.462;7.338;2022-11-15T03:28:12;8.60;;;7.50;;
6878;SDS011;3478;51.462;7.338;2022-11-15T03:33:19;11.30;;;7.63;;
6878;SDS011;3478;51.462;7.338;2022-11-15T03:38:23;11.77;;;7.70;;
6878;SDS011;3478;51.462;7.338;2022-11-15T03:43:29;11.20;;;7.30;;
6878;SDS011;3478;51.462;7.338;2022-11-15T03:48:37;9.63;;;7.00;;
6878;SDS011;3478;51.462;7.338;2022-11-15T03:53:42;9.40;;;7.07;;
6878;SDS011;3478;51.462;7.338;2022-11-15T03:58:44;7.57;;;6.33;;
6878;SDS011;3478;51.462;7.338;2022-11-15T04:03:48;6.50;;;5.83;;
6878;SDS011;3478;51.462;7.338;2022-11-15T04:08:49;6.63;;;6.03;;
6878;SDS011;3478;51.462;7.338;2022-11-15T04:13:51;6.20;;;5.47;;
6878;SDS011;3478;51.462;7.338;2022-11-15T04:18:54;7.00;;;5.60;;
6878;SDS011;3478;51.462;7.338;2022-11-15T04:24:10;8.00;;;6.10;;
6878;SDS011;3478;51.462;7.338;2022-11-15T04:29:15;6.87;;;6.17;;
6878;SDS011;3478;51.462;7.338;2022-11-15T04:34:35;7.40;;;6.70;;
6878;SDS011;3478;51.462;7.338;2022-11-15T04:39:40;7.60;;;5.33;;
6878;SDS011;3478;51.462;7.338;2022-11-15T04:44:43;6.50;;;5.90;;
6878;SDS011;3478;51.462;7.338;2022-11-15T04:49:46;11.83;;;5.97;;
6878;SDS011;3478;51.462;7.338;2022-11-15T04:54:48;8.33;;;6.73;;
6878;SDS011;3478;51.462;7.338;2022-11-15T04:59:50;8.33;;;7.57;;
6878;SDS011;3478;51.462;7.338;2022-11-15T05:04:53;7.63;;;5.87;;
6878;SDS011;3478;51.462;7.338;2022-11-15T05:09:55;6.33;;;5.67;;
6878;SDS011;3478;51.462;7.338;2022-11-15T05:14:57;6.20;;;5.70;;
6878;SDS011;3478;51.462;7.338;2022-11-15T05:20:00;6.83;;;5.90;;
6878;SDS011;3478;51.462;7.338;2022-11-15T05:25:02;6.40;;;5.90;;
6878;SDS011;3478;51.462;7.338;2022-11-15T05:30:05;7.70;;;6.40;;
6878;SDS011;3478;51.462;7.338;2022-11-15T05:35:10;6.97;;;6.23;;
6878;SDS011;3478;51.462;7.338;2022-11-15T05:40:16;6.13;;;5.63;;
6878;SDS011;3478;51.462;7.338;2022-11-15T05:45:18;6.00;;;5.30;;
6878;SDS011;3478;51.462;7.338;2022-11-15T05:50:22;6.60;;;6.10;;
6878;SDS011;3478;51.462;7.338;2022-11-15T05:55:24;7.07;;;6.40;;
6878;SDS011;3478;51.462;7.338;2022-11-15T06:00:26;7.97;;;5.40;;
6878;SDS011;3478;51.462;7.338;2022-11-15T06:05:29;9.47;;;5.20;;
6878;SDS011;3478;51.462;7.338;2022-11-15T06:10:31;5.40;;;4.90;;
6878;SDS011;3478;51.462;7.338;2022-11-15T06:15:33;10.00;;;6.10;;
6878;SDS011;3478;51.462;7.338;2022-11-15T06:20:36;6.37;;;5.83;;
6878;SDS011;3478;51.462;7.338;2022-11-15T06:25:38;5.53;;;5.10;;
6878;SDS011;3478;51.462;7.338;2022-11-15T06:30:40;4.43;;;4.07;;
6878;SDS011;3478;51.462;7.338;2022-11-15T06:35:43;5.13;;;4.07;;
6878;SDS011;3478;51.462;7.338;2022-11-15T06:40:45;4.07;;;3.67;;
6878;SDS011;3478;51.462;7.338;2022-11-15T06:45:47;3.93;;;3.63;;
6878;SDS011;3478;51.462;7.338;2022-11-15T06:50:51;2.50;;;2.30;;
6878;SDS011;3478;51.462;7.338;2022-11-15T06:55:56;3.13;;;2.90;;
6878;SDS011;3478;51.462;7.338;2022-11-15T07:01:01;2.93;;;2.73;;
6878;SDS011;3478;51.462;7.338;2022-11-15T07:06:06;7.20;;;2.63;;
6878;SDS011;3478;51.462;7.338;2022-11-15T07:11:08;3.30;;;3.00;;
6878;SDS011;3478;51.462;7.338;2022-11-15T07:16:10;1.97;;;1.70;;
6878;SDS011;3478;51.462;7.338;2022-11-15T07:21:13;3.13;;;2.90;;
6878;SDS011;3478;51.462;7.338;2022-11-15T07:26:15;3.80;;;1.90;;
6878;SDS011;3478;51.462;7.338;2022-11-15T07:31:17;1.60;;;1.50;;
6878;SDS011;3478;51.462;7.338;2022-11-15T07:36:20;4.57;;;1.70;;
6878;SDS011;3478;51.462;7.338;2022-11-15T07:41:22;1.60;;;1.50;;
6878;SDS011;3478;51.462;7.338;2022-11-15T07:46:24;1.77;;;1.67;;
6878;SDS011;3478;51.462;7.338;2022-11-15T07:51:27;2.47;;;1.80;;
6878;SDS011;3478;51.462;7.338;2022-11-15T07:56:29;1.60;;;1.50;;
6878;SDS011;3478;51.462;7.338;2022-11-15T08:01:31;1.33;;;1.17;;
6878;SDS011;3478;51.462;7.338;2022-11-15T08:06:34;2.73;;;2.10;;
6878;SDS011;3478;51.462;7.338;2022-11-15T08:11:36;1.50;;;1.40;;
6878;SDS011;3478;51.462;7.338;2022-11-15T08:16:38;1.30;;;1.17;;
6878;SDS011;3478;51.462;7.338;2022-11-15T08:21:41;3.23;;;1.67;;
6878;SDS011;3478;51.462;7.338;2022-11-15T08:26:43;1.30;;;1.17;;
6878;SDS011;3478;51.462;7.338;2022-11-15T08:31:45;1.67;;;1.57;;
6878;SDS011;3478;51.462;7.338;2022-11-15T08:36:48;4.87;;;1.10;;
6878;SDS011;3478;51.462;7.338;2022-11-15T08:41:50;1.70;;;1.60;;
6878;SDS011;3478;51.462;7.338;2022-11-15T08:46:52;1.30;;;1.17;;
6878;SDS011;3478;51.462;7.338;2022-11-15T08:51:55;1.77;;;0.90;;
6878;SDS011;3478;51.462;7.338;2022-11-15T08:56:57;1.73;;;1.40;;
6878;SDS011;3478;51.462;7.338;2022-11-15T09:01:59;1.90;;;1.20;;
6878;SDS011;3478;51.462;7.338;2022-11-15T09:07:02;0.90;;;0.70;;
6878;SDS011;3478;51.462;7.338;2022-11-15T09:12:04;1.67;;;0.80;;
6878;SDS011;3478;51.462;7.338;2022-11-15T09:17:07;2.67;;;1.30;;
6878;SDS011;3478;51.462;7.338;2022-11-15T09:22:10;2.70;;;0.90;;
6878;SDS011;3478;51.462;7.338;2022-11-15T09:27:12;2.10;;;1.40;;
6878;SDS011;3478;51.462;7.338;2022-11-15T09:32:14;0.90;;;0.60;;
6878;SDS011;3478;51.462;7.338;2022-11-15T09:37:18;2.90;;;0.80;;
6878;SDS011;3478;51.462;7.338;2022-11-15T09:42:30;1.10;;;0.80;;
6878;SDS011;3478;51.462;7.338;2022-11-15T09:47:57;2.20;;;1.10;;
6878;SDS011;3478;51.462;7.338;2022-11-15T09:53:10;0.80;;;0.70;;
6878;SDS011;3478;51.462;7.338;2022-11-15T09:58:17;1.03;;;0.67;;
6878;SDS011;3478;51.462;7.338;2022-11-15T10:03:27;1.77;;;0.60;;
6878;SDS011;3478;51.462;7.338;2022-11-15T10:08:40;4.63;;;0.60;;
6878;SDS011;3478;51.462;7.338;2022-11-15T10:13:51;1.13;;;0.60;;
6878;SDS011;3478;51.462;7.338;2022-11-15T10:18:56;0.93;;;0.50;;
6878;SDS011;3478;51.462;7.338;2022-11-15T10:24:11;0.80;;;0.50;;
6878;SDS011;3478;51.462;7.338;2022-11-15T10:29:17;1.20;;;0.80;;
6878;SDS011;3478;51.462;7.338;2022-11-15T10:34:21;1.10;;;0.40;;
6878;SDS011;3478;51.462;7.338;2022-11-15T10:39:29;1.43;;;0.40;;
6878;SDS011;3478;51.462;7.338;2022-11-15T10:44:32;4.07;;;0.50;;
6878;SDS011;3478;51.462;7.338;2022-11-15T10:49:52;1.93;;;0.60;;
6878;SDS011;3478;51.462;7.338;2022-11-15T10:54:58;2.73;;;1.00;;
6878;SDS011;3478;51.462;7.338;2022-11-15T11:00:06;1.87;;;0.60;;
6878;SDS011;3478;51.462;7.338;2022-11-15T11:05:28;2.30;;;0.50;;
6878;SDS011;3478;51.462;7.338;2022-11-15T11:10:33;2.57;;;0.60;;
6878;SDS011;3478;51.462;7.338;2022-11-15T11:15:35;2.17;;;0.60;;
6878;SDS011;3478;51.462;7.338;2022-11-15T11:20:38;1.00;;;0.60;;
6878;SDS011;3478;51.462;7.338;2022-11-15T11:25:47;0.70;;;0.50;;
6878;SDS011;3478;51.462;7.338;2022-11-15T11:30:58;0.80;;;0.40;;
6878;SDS011;3478;51.462;7.338;2022-11-15T11:36:11;2.83;;;0.50;;
6878;SDS011;3478;51.462;7.338;2022-11-15T11:41:39;1.20;;;0.40;;
6878;SDS011;3478;51.462;7.338;2022-11-15T11:46:49;1.17;;;0.40;;
6878;SDS011;3478;51.462;7.338;2022-11-15T11:51:58;2.40;;;0.67;;
6878;SDS011;3478;51.462;7.338;2022-11-15T11:57:20;4.70;;;0.50;;
6878;SDS011;3478;51.462;7.338;2022-11-15T12:02:30;0.83;;;0.40;;
6878;SDS011;3478;51.462;7.338;2022-11-15T12:07:35;2.27;;;0.50;;
6878;SDS011;3478;51.462;7.338;2022-11-15T12:12:43;1.80;;;0.70;;
6878;SDS011;3478;51.462;7.338;2022-11-15T12:17:51;1.80;;;0.40;;
6878;SDS011;3478;51.462;7.338;2022-11-15T12:22:56;1.27;;;0.50;;
6878;SDS011;3478;51.462;7.338;2022-11-15T12:28:03;1.13;;;0.70;;
6878;SDS011;3478;51.462;7.338;2022-11-15T12:33:28;0.93;;;0.40;;
6878;SDS011;3478;51.462;7.338;2022-11-15T12:38:54;3.70;;;0.40;;
6878;SDS011;3478;51.462;7.338;2022-11-15T12:43:59;1.30;;;0.50;;
6878;SDS011;3478;51.462;7.338;2022-11-15T12:49:02;2.30;;;0.40;;
6878;SDS011;3478;51.462;7.338;2022-11-15T12:59:56;1.10;;;0.40;;
6878;SDS011;3478;51.462;7.338;2022-11-15T13:05:49;1.00;;;0.40;;
6878;SDS011;3478;51.462;7.338;2022-11-15T13:11:07;1.87;;;0.40;;
6878;SDS011;3478;51.462;7.338;2022-11-15T13:16:50;1.80;;;0.50;;
6878;SDS011;3478;51.462;7.338;2022-11-15T13:21:59;1.37;;;0.60;;
6878;SDS011;3478;51.462;7.338;2022-11-15T13:27:22;0.80;;;0.40;;
6878;SDS011;3478;51.462;7.338;2022-11-15T13:32:28;1.50;;;0.40;;
6878;SDS011;3478;51.462;7.338;2022-11-15T13:37:30;2.60;;;0.50;;
6878;SDS011;3478;51.462;7.338;2022-11-15T13:42:33;1.33;;;0.40;;
6878;SDS011;3478;51.462;7.338;2022-11-15T13:47:37;0.80;;;0.40;;
6878;SDS011;3478;51.462;7.338;2022-11-15T13:52:40;0.60;;;0.30;;
6878;SDS011;3478;51.462;7.338;2022-11-15T13:57:46;5.73;;;1.23;;
6878;SDS011;3478;51.462;7.338;2022-11-15T14:02:52;1.80;;;0.30;;
6878;SDS011;3478;51.462;7.338;2022-11-15T14:07:56;1.90;;;0.30;;
6878;SDS011;3478;51.462;7.338;2022-11-15T14:12:59;1.57;;;0.67;;
6878;SDS011;3478;51.462;7.338;2022-11-15T14:18:04;0.90;;;0.50;;
6878;SDS011;3478;51.462;7.338;2022-11-15T14:23:18;1.23;;;0.80;;
6878;SDS011;3478;51.462;7.338;2022-11-15T14:28:29;1.87;;;0.60;;
6878;SDS011;3478;51.462;7.338;2022-11-15T14:33:38;0.83;;;0.60;;
6878;SDS011;3478;51.462;7.338;2022-11-15T14:38:40;6.57;;;1.00;;
6878;SDS011;3478;51.462;7.338;2022-11-15T14:43:44;1.10;;;0.70;;
6878;SDS011;3478;51.462;7.338;2022-11-15T14:48:47;1.27;;;0.90;;
6878;SDS011;3478;51.462;7.338;2022-11-15T14:53:49;1.87;;;0.80;;
6878;SDS011;3478;51.462;7.338;2022-11-15T14:58:51;4.00;;;1.10;;
6878;SDS011;3478;51.462;7.338;2022-11-15T15:03:56;5.10;;;1.37;;
6878;SDS011;3478;51.462;7.338;2022-11-15T15:08:58;1.20;;;0.70;;
6878;SDS011;3478;51.462;7.338;2022-11-15T15:14:02;1.10;;;0.77;;
6878;SDS011;3478;51.462;7.338;2022-11-15T15:19:05;1.13;;;1.03;;
6878;SDS011;3478;51.462;7.338;2022-11-15T15:24:07;2.40;;;0.87;;
6878;SDS011;3478;51.462;7.338;2022-11-15T15:29:14;1.57;;;1.47;;
6878;SDS011;3478;51.462;7.338;2022-11-15T15:34:18;2.40;;;1.30;;
6878;SDS011;3478;51.462;7.338;2022-11-15T15:39:36;3.60;;;0.73;;
6878;SDS011;3478;51.462;7.338;2022-11-15T15:44:39;1.73;;;1.03;;
6878;SDS011;3478;51.462;7.338;2022-11-15T15:49:42;1.77;;;0.97;;
6878;SDS011;3478;51.462;7.338;2022-11-15T15:54:51;3.70;;;0.87;;
6878;SDS011;3478;51.462;7.338;2022-11-15T15:59:53;1.70;;;0.90;;
6878;SDS011;3478;51.462;7.338;2022-11-15T16:04:56;3.53;;;0.67;;
6878;SDS011;3478;51.462;7.338;2022-11-15T16:09:59;2.50;;;1.40;;
6878;SDS011;3478;51.462;7.338;2022-11-15T16:15:01;3.00;;;0.87;;
6878;SDS011;3478;51.462;7.338;2022-11-15T16:20:08;2.03;;;1.17;;
6878;SDS011;3478;51.462;7.338;2022-11-15T16:25:23;3.60;;;0.97;;
6878;SDS011;3478;51.462;7.338;2022-11-15T16:30:25;1.40;;;0.90;;
6878;SDS011;3478;51.462;7.338;2022-11-15T16:35:29;1.20;;;1.10;;
6878;SDS011;3478;51.462;7.338;2022-11-15T16:40:31;0.80;;;0.60;;
6878;SDS011;3478;51.462;7.338;2022-11-15T16:45:35;2.30;;;1.33;;
6878;SDS011;3478;51.462;7.338;2022-11-15T16:50:39;1.40;;;1.00;;
6878;SDS011;3478;51.462;7.338;2022-11-15T16:55:41;1.50;;;0.97;;
6878;SDS011;3478;51.462;7.338;2022-11-15T17:00:43;3.50;;;1.50;;
6878;SDS011;3478;51.462;7.338;2022-11-15T17:05:48;1.40;;;0.97;;
6878;SDS011;3478;51.462;7.338;2022-11-15T17:10:51;1.10;;;0.80;;
6878;SDS011;3478;51.462;7.338;2022-11-15T17:16:01;1.33;;;0.93;;
6878;SDS011;3478;51.462;7.338;2022-11-15T17:21:07;1.87;;;0.73;;
6878;SDS011;3478;51.462;7.338;2022-11-15T17:26:13;3.10;;;1.07;;
6878;SDS011;3478;51.462;7.338;2022-11-15T17:31:16;1.90;;;0.97;;
6878;SDS011;3478;51.462;7.338;2022-11-15T17:36:19;2.90;;;0.97;;
6878;SDS011;3478;51.462;7.338;2022-11-15T17:41:22;1.87;;;0.80;;
6878;SDS011;3478;51.462;7.338;2022-11-15T17:46:24;1.00;;;0.83;;
6878;SDS011;3478;51.462;7.338;2022-11-15T17:51:28;0.90;;;0.50;;
6878;SDS011;3478;51.462;7.338;2022-11-15T17:56:32;1.20;;;0.90;;
6878;SDS011;3478;51.462;7.338;2022-11-15T18:01:38;1.10;;;0.87;;
6878;SDS011;3478;51.462;7.338;2022-11-15T18:06:42;0.97;;;0.87;;
6878;SDS011;3478;51.462;7.338;2022-11-15T18:11:44;1.10;;;0.90;;
6878;SDS011;3478;51.462;7.338;2022-11-15T18:16:50;0.83;;;0.60;;
6878;SDS011;3478;51.462;7.338;2022-11-15T18:21:55;0.70;;;0.50;;
6878;SDS011;3478;51.462;7.338;2022-11-15T18:26:58;1.83;;;0.90;;
6878;SDS011;3478;51.462;7.338;2022-11-15T18:32:01;1.77;;;0.80;;
6878;SDS011;3478;51.462;7.338;2022-11-15T18:37:11;1.03;;;0.93;;
6878;SDS011;3478;51.462;7.338;2022-11-15T18:42:13;1.23;;;0.90;;
6878;SDS011;3478;51.462;7.338;2022-11-15T18:47:16;1.23;;;0.93;;
6878;SDS011;3478;51.462;7.338;2022-11-15T18:52:19;2.90;;;0.87;;
6878;SDS011;3478;51.462;7.338;2022-11-15T18:57:21;1.00;;;0.77;;
6878;SDS011;3478;51.462;7.338;2022-11-15T19:02:23;1.27;;;0.90;;
6878;SDS011;3478;51.462;7.338;2022-11-15T19:07:28;1.00;;;0.70;;
6878;SDS011;3478;51.462;7.338;2022-11-15T19:12:30;1.53;;;1.00;;
6878;SDS011;3478;51.462;7.338;2022-11-15T19:17:32;1.33;;;0.90;;
6878;SDS011;3478;51.462;7.338;2022-11-15T19:22:36;1.23;;;0.93;;
6878;SDS011;3478;51.462;7.338;2022-11-15T19:27:38;2.47;;;1.27;;
6878;SDS011;3478;51.462;7.338;2022-11-15T19:32:40;2.40;;;0.93;;
6878;SDS011;3478;51.462;7.338;2022-11-15T19:37:43;1.27;;;0.83;;
6878;SDS011;3478;51.462;7.338;2022-11-15T19:42:45;1.97;;;1.77;;
6878;SDS011;3478;51.462;7.338;2022-11-15T19:47:47;1.87;;;0.80;;
6878;SDS011;3478;51.462;7.338;2022-11-15T19:52:51;2.30;;;0.60;;
6878;SDS011;3478;51.462;7.338;2022-11-15T19:57:53;2.90;;;1.03;;
6878;SDS011;3478;51.462;7.338;2022-11-15T20:02:55;1.27;;;1.17;;
6878;SDS011;3478;51.462;7.338;2022-11-15T20:07:58;3.30;;;0.80;;
6878;SDS011;3478;51.462;7.338;2022-11-15T20:13:00;1.00;;;0.90;;
6878;SDS011;3478;51.462;7.338;2022-11-15T20:18:03;1.07;;;0.87;;
6878;SDS011;3478;51.462;7.338;2022-11-15T20:23:06;2.00;;;1.90;;
6878;SDS011;3478;51.462;7.338;2022-11-15T20:28:09;1.87;;;1.23;;
6878;SDS011;3478;51.462;7.338;2022-11-15T20:33:16;1.47;;;1.30;;
6878;SDS011;3478;51.462;7.338;2022-11-15T20:38:19;2.33;;;1.50;;
6878;SDS011;3478;51.462;7.338;2022-11-15T20:43:22;1.63;;;1.50;;
6878;SDS011;3478;51.462;7.338;2022-11-15T20:48:24;1.53;;;1.00;;
6878;SDS011;3478;51.462;7.338;2022-11-15T20:53:28;1.70;;;1.13;;
6878;SDS011;3478;51.462;7.338;2022-11-15T20:58:30;1.70;;;1.60;;
6878;SDS011;3478;51.462;7.338;2022-11-15T21:03:32;2.30;;;1.97;;
6878;SDS011;3478;51.462;7.338;2022-11-15T21:08:36;2.47;;;1.70;;
6878;SDS011;3478;51.462;7.338;2022-11-15T21:13:56;4.20;;;1.53;;
6878;SDS011;3478;51.462;7.338;2022-11-15T21:18:58;1.30;;;1.20;;
6878;SDS011;3478;51.462;7.338;2022-11-15T21:24:02;1.47;;;1.37;;
6878;SDS011;3478;51.462;7.338;2022-11-15T21:29:05;1.00;;;0.90;;
6878;SDS011;3478;51.462;7.338;2022-11-15T21:34:07;1.50;;;1.40;;
6878;SDS011;3478;51.462;7.338;2022-11-15T21:39:10;1.17;;;1.07;;
6878;SDS011;3478;51.462;7.338;2022-11-15T21:44:12;1.07;;;0.97;;
6878;SDS011;3478;51.462;7.338;2022-11-15T21:49:14;1.07;;;0.90;;
6878;SDS011;3478;51.462;7.338;2022-11-15T21:54:18;1.70;;;1.60;;
6878;SDS011;3478;51.462;7.338;2022-11-15T21:59:20;1.27;;;1.17;;
6878;SDS011;3478;51.462;7.338;2022-11-15T22:04:22;1.57;;;1.47;;
6878;SDS011;3478;51.462;7.338;2022-11-15T22:09:25;1.37;;;1.27;;
6878;SDS011;3478;51.462;7.338;2022-11-15T22:14:26;1.27;;;0.90;;
6878;SDS011;3478;51.462;7.338;2022-11-15T22:19:28;4.47;;;1.73;;
6878;SDS011;3478;51.462;7.338;2022-11-15T22:24:32;1.33;;;1.23;;
6878;SDS011;3478;51.462;7.338;2022-11-15T22:29:34;1.43;;;1.23;;
6878;SDS011;3478;51.462;7.338;2022-11-15T22:34:36;1.30;;;1.00;;
6878;SDS011;3478;51.462;7.338;2022-11-15T22:39:39;2.10;;;1.17;;
6878;SDS011;3478;51.462;7.338;2022-11-15T22:44:41;1.40;;;1.30;;
6878;SDS011;3478;51.462;7.338;2022-11-15T22:49:43;1.17;;;1.00;;
6878;SDS011;3478;51.462;7.338;2022-11-15T22:54:46;1.43;;;1.33;;
6878;SDS011;3478;51.462;7.338;2022-11-15T22:59:48;1.83;;;1.20;;
6878;SDS011;3478;51.462;7.338;2022-11-15T23:04:50;1.70;;;1.30;;
6878;SDS011;3478;51.462;7.338;2022-11-15T23:09:54;1.43;;;1.33;;
6878;SDS011;3478;51.462;7.338;2022-11-15T23:15:16;1.50;;;1.30;;
6878;SDS011;3478;51.462;7.338;2022-11-15T23:20:18;4.33;;;1.73;;
6878;SDS011;3478;51.462;7.338;2022-11-15T23:25:21;1.30;;;1.20;;
6878;SDS011;3478;51.462;7.338;2022-11-15T23:30:23;1.73;;;1.63;;
6878;SDS011;3478;51.462;7.338;2022-11-15T23:35:51;1.93;;;1.70;;
6878;SDS011;3478;51.462;7.338;2022-11-15T23:40:55;2.07;;;1.37;;
6878;SDS011;3478;51.462;7.338;2022-11-15T23:45:58;2.83;;;1.40;;
6878;SDS011;3478;51.462;7.338;2022-11-15T23:51:00;1.77;;;1.40;;
6878;SDS011;3478;51.462;7.338;2022-11-15T23:56:05;2.63;;;1.17;;
